Time;durP1;ratioP1;P1;durP2;ratioP2;P2;SDS_P1;SDS_P2;PMS_P1;PMS_P2;Temp;Humidity;BMP_temperature;BMP_pressure;BME280_temperature;BME280_humidity;BME280_pressure;Samples;Min_cycle;Max_cycle;Signal;HPM_P1;HPM_P2
2023/03/06 00:00:23;;;;;;;59.90;32.60;;;;;;;-0.11;100.00;97026.83;52454;1254;1016362;-77
2023/03/06 00:03:10;;;;;;;58.30;32.40;;;;;;;-0.07;100.00;97030.91;52491;1254;1055323;-77
2023/03/06 00:05:37;;;;;;;68.90;36.30;;;;;;;-0.05;100.00;97025.14;52411;1259;1016310;-77
2023/03/06 00:08:04;;;;;;;65.80;34.40;;;;;;;-0.04;100.00;97028.62;52373;1260;1059811;-76
2023/03/06 00:10:31;;;;;;;63.30;35.30;;;;;;;-0.01;100.00;97039.27;52371;1255;1016291;-77
2023/03/06 00:13:03;;;;;;;49.70;25.60;;;;;;;-0.07;100.00;97042.62;52469;1254;1075831;-77
2023/03/06 00:15:30;;;;;;;37.50;20.30;;;;;;;-0.22;100.00;97044.69;52499;1260;1073648;-77
2023/03/06 00:17:56;;;;;;;37.30;18.50;;;;;;;-0.23;100.00;97044.34;52390;1258;1016521;-77
2023/03/06 00:20:23;;;;;;;41.80;20.30;;;;;;;-0.19;100.00;97045.45;52470;1261;1068882;-77
2023/03/06 00:22:50;;;;;;;40.80;21.00;;;;;;;-0.19;100.00;97046.67;52439;1260;1016409;-77
2023/03/06 00:25:18;;;;;;;39.00;19.90;;;;;;;-0.22;100.00;97045.50;52464;1257;1069953;-76
2023/03/06 00:27:45;;;;;;;41.70;21.80;;;;;;;-0.19;100.00;97044.65;52419;1254;1016221;-77
2023/03/06 00:30:14;;;;;;;36.50;19.40;;;;;;;-0.14;100.00;97046.46;52470;1257;1016851;-77
2023/03/06 00:32:41;;;;;;;40.30;19.20;;;;;;;-0.15;100.00;97043.24;52388;1260;1051714;-77
2023/03/06 00:35:08;;;;;;;38.80;20.10;;;;;;;-0.11;100.00;97044.34;52528;1257;1016442;-77
2023/03/06 00:37:34;;;;;;;34.80;19.00;;;;;;;-0.11;100.00;97048.27;52472;1260;1058829;-77
2023/03/06 00:40:04;;;;;;;35.40;17.80;;;;;;;-0.13;100.00;97049.90;52529;1258;1018068;-77
2023/03/06 00:42:30;;;;;;;34.60;17.70;;;;;;;-0.10;100.00;97052.83;52493;1258;1076369;-78
2023/03/06 00:44:57;;;;;;;33.60;17.60;;;;;;;-0.10;100.00;97045.05;52535;1254;1016342;-76
2023/03/06 00:47:24;;;;;;;31.30;17.20;;;;;;;-0.08;100.00;97045.80;52525;1254;1071737;-77
2023/03/06 00:49:50;;;;;;;32.30;15.60;;;;;;;-0.03;100.00;97046.15;52538;1257;1016842;-77
2023/03/06 00:52:17;;;;;;;27.70;16.80;;;;;;;0.01;100.00;97046.35;52499;1255;1069492;-77
2023/03/06 00:54:43;;;;;;;26.20;15.50;;;;;;;0.05;100.00;97045.25;52410;1254;1016293;-77
2023/03/06 00:57:10;;;;;;;28.90;14.90;;;;;;;0.09;100.00;97041.29;52452;1257;1050372;-77
2023/03/06 00:59:37;;;;;;;28.60;15.00;;;;;;;0.12;100.00;97039.86;52439;1255;1016233;-77
2023/03/06 01:02:04;;;;;;;25.50;15.50;;;;;;;0.15;100.00;97046.09;52448;1267;1061328;-77
2023/03/06 01:04:31;;;;;;;23.80;13.40;;;;;;;0.17;100.00;97043.79;52416;1254;1016124;-77
2023/03/06 01:06:57;;;;;;;25.10;14.70;;;;;;;0.18;100.00;97040.61;52463;1254;1075748;-77
2023/03/06 01:09:24;;;;;;;23.90;12.90;;;;;;;0.18;100.00;97040.56;52493;1257;1016462;-77
2023/03/06 01:11:51;;;;;;;24.20;13.00;;;;;;;0.20;100.00;97039.00;52451;1254;1071119;-77
2023/03/06 01:14:20;;;;;;;24.30;11.30;;;;;;;0.22;100.00;97042.19;52431;1254;1016312;-77
2023/03/06 01:16:47;;;;;;;21.60;12.60;;;;;;;0.25;100.00;97042.33;52393;1267;1071389;-77
2023/03/06 01:19:14;;;;;;;17.30;11.50;;;;;;;0.26;100.00;97047.52;52413;1260;1016827;-77
2023/03/06 01:21:40;;;;;;;23.30;12.10;;;;;;;0.27;100.00;97045.27;52445;1259;1053528;-77
2023/03/06 01:24:07;;;;;;;19.80;11.00;;;;;;;0.27;100.00;97042.87;52536;1252;1015862;-77
2023/03/06 01:26:34;;;;;;;19.90;11.20;;;;;;;0.28;100.00;97044.38;52513;1257;1058985;-77
2023/03/06 01:29:00;;;;;;;21.40;12.10;;;;;;;0.30;100.00;97042.27;52561;1257;1016384;-77
2023/03/06 01:31:27;;;;;;;16.60;10.00;;;;;;;0.32;100.00;97043.10;52553;1253;1076204;-77
2023/03/06 01:33:54;;;;;;;22.00;11.80;;;;;;;0.32;100.00;97038.83;52509;1255;1015842;-76
2023/03/06 01:36:21;;;;;;;20.70;10.90;;;;;;;0.32;100.00;97034.15;52448;1254;1069769;-77
2023/03/06 01:38:47;;;;;;;16.90;9.50;;;;;;;0.32;100.00;97029.61;52417;1259;1016237;-77
2023/03/06 01:41:14;;;;;;;17.80;10.20;;;;;;;0.34;100.00;97029.06;52465;1257;1073524;-77
2023/03/06 01:43:44;;;;;;;15.90;9.20;;;;;;;0.34;100.00;97026.14;52499;1260;1016095;-77
2023/03/06 01:46:43;;;;;;;19.00;10.80;;;;;;;0.33;100.00;97025.15;52519;1254;1051235;-77
2023/03/06 01:49:20;;;;;;;10.40;8.10;;;;;;;0.32;100.00;97020.13;52510;1254;1050771;-77
2023/03/06 01:51:51;;;;;;;16.30;9.30;;;;;;;0.32;100.00;97020.98;52542;1257;1050482;-77
2023/03/06 01:54:24;;;;;;;16.30;9.30;;;;;;;0.33;100.00;97020.77;52521;1258;1051573;-77
2023/03/06 01:56:53;;;;;;;17.80;10.00;;;;;;;0.32;100.00;97023.33;52558;1254;1053608;-77
2023/03/06 01:59:20;;;;;;;18.70;12.20;;;;;;;0.31;100.00;97024.75;52438;1254;1016124;-77
2023/03/06 02:01:46;;;;;;;18.40;10.50;;;;;;;0.30;100.00;97024.04;52485;1254;1016120;-76
2023/03/06 02:04:13;;;;;;;18.10;10.60;;;;;;;0.28;100.00;97022.59;52441;1254;1061082;-77
2023/03/06 02:06:42;;;;;;;18.50;10.80;;;;;;;0.27;100.00;97019.63;52483;1254;1016450;-77
2023/03/06 02:09:09;;;;;;;15.70;10.10;;;;;;;0.26;100.00;97015.70;52415;1254;1076262;-77
2023/03/06 02:11:36;;;;;;;19.50;10.80;;;;;;;0.24;100.00;97015.19;52496;1254;1016394;-77
2023/03/06 02:14:03;;;;;;;18.00;9.70;;;;;;;0.23;100.00;97015.48;52413;1258;1068811;-77
2023/03/06 02:16:30;;;;;;;31.50;14.60;;;;;;;0.22;100.00;97013.70;52469;1257;1016059;-77
2023/03/06 02:18:57;;;;;;;23.10;12.10;;;;;;;0.20;100.00;97015.55;52395;1261;1071287;-77
2023/03/06 02:21:26;;;;;;;24.70;14.60;;;;;;;0.15;100.00;97015.23;52439;1258;1016110;-77
2023/03/06 02:24:03;;;;;;;21.90;12.60;;;;;;;0.11;100.00;97012.39;52515;1254;1054009;-77
2023/03/06 02:26:30;;;;;;;24.60;13.50;;;;;;;0.01;100.00;97005.27;52501;1254;1053935;-77
2023/03/06 02:28:58;;;;;;;23.60;13.60;;;;;;;-0.05;100.00;97005.95;52454;1259;1016231;-77
2023/03/06 02:31:27;;;;;;;21.20;13.20;;;;;;;-0.08;100.00;97007.86;52528;1254;1058292;-77
2023/03/06 02:34:12;;;;;;;23.70;14.60;;;;;;;-0.14;100.00;97009.55;52585;1257;1016082;-77
2023/03/06 02:37:00;;;;;;;18.90;10.90;;;;;;;-0.19;100.00;97009.88;52482;1254;1058396;-77
2023/03/06 02:39:28;;;;;;;19.90;10.20;;;;;;;-0.23;100.00;97006.08;52401;1254;1058070;-77
2023/03/06 02:41:55;;;;;;;15.70;10.40;;;;;;;-0.26;100.00;97005.05;52553;1258;1018553;-77
2023/03/06 02:44:22;;;;;;;16.90;10.90;;;;;;;-0.33;100.00;97000.98;52459;1254;1076288;-77
2023/03/06 02:46:48;;;;;;;14.00;8.80;;;;;;;-0.36;100.00;97004.42;52496;1254;1016002;-77
2023/03/06 02:49:15;;;;;;;18.10;11.20;;;;;;;-0.44;100.00;97000.91;52526;1253;1071623;-77
2023/03/06 02:51:42;;;;;;;15.60;9.00;;;;;;;-0.48;100.00;96995.34;52539;1254;1016388;-77
2023/03/06 02:54:09;;;;;;;16.00;10.10;;;;;;;-0.49;100.00;96996.59;52523;1254;1070787;-78
2023/03/06 02:56:36;;;;;;;16.50;10.40;;;;;;;-0.56;100.00;96993.56;52487;1254;1016250;-77
2023/03/06 02:59:03;;;;;;;14.60;10.20;;;;;;;-0.62;100.00;96989.66;52396;1254;1042362;-78
2023/03/06 03:01:29;;;;;;;20.40;12.00;;;;;;;-0.63;100.00;96993.04;52444;1260;1016160;-77
2023/03/06 03:03:56;;;;;;;16.20;10.70;;;;;;;-0.61;100.00;96992.75;52474;1254;1060712;-77
2023/03/06 03:06:22;;;;;;;26.40;14.80;;;;;;;-0.62;100.00;96990.59;52436;1254;1016147;-77
2023/03/06 03:08:49;;;;;;;15.70;11.00;;;;;;;-0.65;100.00;96984.11;52457;1254;1076442;-77
2023/03/06 03:11:16;;;;;;;15.80;9.90;;;;;;;-0.68;100.00;96982.14;52475;1257;1016415;-77
2023/03/06 03:13:42;;;;;;;16.90;10.00;;;;;;;-0.71;100.00;96982.27;52458;1257;1071693;-76
2023/03/06 03:16:12;;;;;;;17.50;9.40;;;;;;;-0.71;100.00;96985.67;52504;1254;1016320;-77
2023/03/06 03:18:39;;;;;;;17.50;11.00;;;;;;;-0.71;100.00;96982.38;52544;1257;1061841;-77
2023/03/06 03:21:07;;;;;;;25.80;13.80;;;;;;;-0.72;100.00;96980.88;52364;1254;1016202;-77
2023/03/06 03:23:34;;;;;;;23.20;14.40;;;;;;;-0.72;100.00;96978.90;52461;1255;1051439;-76
2023/03/06 03:26:14;;;;;;;16.60;10.20;;;;;;;-0.73;100.00;96978.89;52539;1257;1018481;-77
2023/03/06 03:28:40;;;;;;;29.30;18.60;;;;;;;-0.81;100.00;96977.73;52557;1254;1059135;-77
2023/03/06 03:31:09;;;;;;;19.50;12.20;;;;;;;-0.80;100.00;96976.11;52798;1254;1016250;-77
2023/03/06 03:33:35;;;;;;;19.40;10.10;;;;;;;-0.78;100.00;96973.08;52746;1254;1074405;-77
2023/03/06 03:36:03;;;;;;;19.50;12.50;;;;;;;-0.75;100.00;96972.72;52592;1254;1016264;-76
2023/03/06 03:38:30;;;;;;;19.90;12.90;;;;;;;-0.72;100.00;96976.02;52823;1254;1070251;-77
2023/03/06 03:40:56;;;;;;;23.10;13.60;;;;;;;-0.70;100.00;96973.92;52619;1254;1016054;-77
2023/03/06 03:43:23;;;;;;;19.40;10.70;;;;;;;-0.70;100.00;96970.27;52702;1257;1069773;-77
2023/03/06 03:45:52;;;;;;;18.50;11.40;;;;;;;-0.68;100.00;96970.21;52844;1257;1016015;-77
2023/03/06 03:48:19;;;;;;;27.00;14.00;;;;;;;-0.66;100.00;96968.13;52630;1256;1053695;-77
2023/03/06 03:50:45;;;;;;;24.10;14.30;;;;;;;-0.62;100.00;96968.79;52625;1256;1016530;-77
2023/03/06 03:53:12;;;;;;;28.20;17.40;;;;;;;-0.59;100.00;96963.23;52452;1258;1062746;-77
2023/03/06 03:55:39;;;;;;;26.50;16.10;;;;;;;-0.60;100.00;96962.77;52608;1254;1016055;-77
2023/03/06 03:58:05;;;;;;;21.40;13.80;;;;;;;-0.64;100.00;96962.11;52622;1254;1074695;-77
2023/03/06 04:00:32;;;;;;;17.70;11.90;;;;;;;-0.63;100.00;96964.34;52582;1254;1018780;-76
2023/03/06 04:02:59;;;;;;;17.90;9.20;;;;;;;-0.60;100.00;96967.84;52602;1258;1071995;-77
2023/03/06 04:05:26;;;;;;;11.40;7.90;;;;;;;-0.59;100.00;96969.67;52621;1254;1015942;-76
2023/03/06 04:07:52;;;;;;;13.00;8.90;;;;;;;-0.58;100.00;96968.67;52565;1254;1071784;-76
2023/03/06 04:10:19;;;;;;;16.00;10.60;;;;;;;-0.58;100.00;96972.98;52665;1255;1016168;-76
2023/03/06 04:12:46;;;;;;;16.00;11.00;;;;;;;-0.57;100.00;96973.48;52694;1257;1049827;-76
2023/03/06 04:15:12;;;;;;;25.40;16.20;;;;;;;-0.53;100.00;96972.02;53200;1254;1015818;-76
2023/03/06 04:17:39;;;;;;;34.80;20.30;;;;;;;-0.47;100.00;96969.11;53324;1254;1058343;-76
2023/03/06 04:20:06;;;;;;;26.50;17.30;;;;;;;-0.43;100.00;96968.45;53064;1257;1016035;-77
2023/03/06 04:22:33;;;;;;;30.60;18.70;;;;;;;-0.46;100.00;96969.29;52973;1254;1073862;-77
2023/03/06 04:25:00;;;;;;;33.80;19.40;;;;;;;-0.49;100.00;96969.73;52869;1254;1015910;-76
2023/03/06 04:27:26;;;;;;;47.90;28.30;;;;;;;-0.49;100.00;96964.90;52517;1254;1072359;-77
2023/03/06 04:29:55;;;;;;;50.70;29.80;;;;;;;-0.50;100.00;96959.73;52541;1254;1016221;-76
2023/03/06 04:32:22;;;;;;;58.40;35.90;;;;;;;-0.49;100.00;96953.80;52497;1254;1070259;-77
2023/03/06 04:34:48;;;;;;;70.10;40.50;;;;;;;-0.51;100.00;96957.04;52486;1254;1016147;-77
2023/03/06 04:37:20;;;;;;;37.40;24.30;;;;;;;-0.52;100.00;96958.68;52527;1253;1053707;-77
2023/03/06 04:39:47;;;;;;;43.40;25.80;;;;;;;-0.55;100.00;96954.45;52429;1253;1053589;-77
2023/03/06 04:42:13;;;;;;;38.90;21.70;;;;;;;-0.56;100.00;96949.39;52538;1254;1015710;-77
2023/03/06 04:44:40;;;;;;;42.20;23.60;;;;;;;-0.60;100.00;96950.48;52537;1254;1060731;-77
2023/03/06 04:47:07;;;;;;;42.30;26.90;;;;;;;-0.59;100.00;96951.67;52524;1254;1018825;-76
2023/03/06 04:49:34;;;;;;;29.10;18.10;;;;;;;-0.60;100.00;96944.30;52523;1257;1072025;-77
2023/03/06 04:52:00;;;;;;;34.60;20.60;;;;;;;-0.61;100.00;96941.23;52544;1254;1016307;-77
2023/03/06 04:54:27;;;;;;;37.80;22.40;;;;;;;-0.62;100.00;96944.85;52462;1256;1061490;-77
2023/03/06 04:56:53;;;;;;;46.70;26.50;;;;;;;-0.63;100.00;96944.52;52453;1258;1016127;-78
2023/03/06 04:59:20;;;;;;;50.90;29.30;;;;;;;-0.65;100.00;96942.92;52432;1257;1073439;-77
2023/03/06 05:01:47;;;;;;;47.50;27.20;;;;;;;-0.71;100.00;96942.30;52395;1258;1016639;-77
2023/03/06 05:04:13;;;;;;;48.50;27.00;;;;;;;-0.73;100.00;96945.79;52420;1257;1051467;-77
2023/03/06 05:06:40;;;;;;;45.80;27.50;;;;;;;-0.71;100.00;96945.87;52502;1257;1015995;-76
2023/03/06 05:09:07;;;;;;;47.70;31.70;;;;;;;-0.70;100.00;96944.50;52440;1254;1057093;-77
2023/03/06 05:11:33;;;;;;;48.70;27.90;;;;;;;-0.69;100.00;96942.02;52465;1254;1016060;-76
2023/03/06 05:14:00;;;;;;;45.80;26.50;;;;;;;-0.67;100.00;96938.95;52515;1254;1075511;-76
2023/03/06 05:16:26;;;;;;;40.10;22.80;;;;;;;-0.72;100.00;96935.38;52586;1254;1016369;-76
2023/03/06 05:18:53;;;;;;;34.40;17.50;;;;;;;-0.74;100.00;96932.14;52496;1254;1073460;-77
2023/03/06 05:21:20;;;;;;;34.00;19.30;;;;;;;-0.76;100.00;96930.62;52540;1254;1018083;-76
2023/03/06 05:23:46;;;;;;;36.20;18.40;;;;;;;-0.77;100.00;96932.89;52483;1254;1062358;-77
2023/03/06 05:26:13;;;;;;;33.00;17.90;;;;;;;-0.80;100.00;96932.00;52433;1254;1016238;-76
2023/03/06 05:28:40;;;;;;;24.90;14.50;;;;;;;-0.86;100.00;96934.98;52539;1254;1053595;-76
2023/03/06 05:31:07;;;;;;;27.90;16.40;;;;;;;-0.94;100.00;96935.70;52586;1256;1016513;-76
2023/03/06 05:33:34;;;;;;;29.00;17.70;;;;;;;-0.95;100.00;96940.14;52530;1254;1058430;-77
2023/03/06 05:36:01;;;;;;;32.20;17.20;;;;;;;-0.93;100.00;96937.48;52426;1254;1016127;-77
2023/03/06 05:38:27;;;;;;;31.00;19.30;;;;;;;-0.88;100.00;96939.30;52526;1256;1073572;-77
2023/03/06 05:40:54;;;;;;;29.50;16.70;;;;;;;-0.81;100.00;96940.34;52534;1253;1015712;-76
2023/03/06 05:43:21;;;;;;;28.80;18.20;;;;;;;-0.77;100.00;96939.92;52461;1253;1069073;-77
2023/03/06 05:45:49;;;;;;;34.30;21.60;;;;;;;-0.76;100.00;96937.58;52571;1256;1015544;-76
2023/03/06 05:48:15;;;;;;;36.30;21.90;;;;;;;-0.70;100.00;96936.27;52527;1257;1073111;-76
2023/03/06 05:50:42;;;;;;;89.50;47.60;;;;;;;-0.61;100.00;96930.11;52462;1256;1016464;-77
2023/03/06 05:53:09;;;;;;;98.40;47.30;;;;;;;-0.59;100.00;96917.23;52496;1254;1051101;-76
2023/03/06 05:55:35;;;;;;;120.20;71.40;;;;;;;-0.55;100.00;96906.45;52482;1253;1015957;-76
2023/03/06 05:58:02;;;;;;;74.00;38.00;;;;;;;-0.48;100.00;96905.70;52514;1256;1060953;-75
2023/03/06 06:00:29;;;;;;;67.80;35.90;;;;;;;-0.37;100.00;96904.90;52359;1254;1016299;-76
2023/03/06 06:02:55;;;;;;;38.00;22.40;;;;;;;-0.22;100.00;96906.92;52499;1254;1076147;-77
2023/03/06 06:05:22;;;;;;;20.50;12.40;;;;;;;-0.08;100.00;96901.29;52443;1254;1016901;-76
2023/03/06 06:07:49;;;;;;;24.30;13.00;;;;;;;0.09;100.00;96913.69;52445;1253;1070807;-76
2023/03/06 06:10:16;;;;;;;14.10;7.80;;;;;;;0.22;100.00;96922.16;52507;1254;1016396;-77
2023/03/06 06:12:43;;;;;;;20.20;12.80;;;;;;;0.37;100.00;96926.30;52434;1257;1073264;-76
2023/03/06 06:15:09;;;;;;;12.60;8.10;;;;;;;0.46;100.00;96932.80;52441;1254;1018695;-77
2023/03/06 06:17:36;;;;;;;11.40;6.40;;;;;;;0.53;100.00;96942.95;52479;1257;1050265;-76
2023/03/06 06:20:03;;;;;;;84.10;52.10;;;;;;;0.62;100.00;96943.41;52453;1254;1015894;-77
2023/03/06 06:22:30;;;;;;;43.80;28.00;;;;;;;0.69;100.00;96945.55;52532;1254;1058144;-77
2023/03/06 06:24:56;;;;;;;18.80;10.70;;;;;;;0.72;100.00;96941.98;52477;1254;1016135;-76
2023/03/06 06:27:23;;;;;;;13.70;7.90;;;;;;;0.77;100.00;96943.13;52440;1255;1076565;-76
2023/03/06 06:29:51;;;;;;;12.40;7.40;;;;;;;0.83;100.00;96945.87;52501;1256;1015826;-77
2023/03/06 06:32:18;;;;;;;11.60;5.90;;;;;;;0.87;100.00;96945.03;52556;1254;1071888;-77
2023/03/06 06:34:44;;;;;;;13.00;7.10;;;;;;;0.94;100.00;96948.40;52437;1254;1016417;-76
2023/03/06 06:37:11;;;;;;;11.60;6.70;;;;;;;0.97;100.00;96944.55;52423;1254;1073401;-77
2023/03/06 06:39:37;;;;;;;12.10;6.10;;;;;;;1.01;100.00;96947.59;52478;1257;1018046;-77
2023/03/06 06:42:04;;;;;;;17.50;11.10;;;;;;;1.07;100.00;96939.67;52550;1257;1051008;-76
2023/03/06 06:44:31;;;;;;;13.50;7.60;;;;;;;1.13;100.00;96934.73;52546;1257;1019081;-77
2023/03/06 06:46:57;;;;;;;14.40;7.20;;;;;;;1.19;99.91;96937.21;52503;1254;1059591;-76
2023/03/06 06:49:24;;;;;;;14.00;7.20;;;;;;;1.23;99.96;96942.29;52521;1254;1016490;-77
2023/03/06 06:51:51;;;;;;;21.30;8.90;;;;;;;1.26;98.25;96952.70;52530;1254;1076072;-77
2023/03/06 06:54:18;;;;;;;22.00;13.20;;;;;;;1.33;99.81;96954.39;52467;1257;1016019;-77
2023/03/06 06:56:45;;;;;;;20.70;12.00;;;;;;;1.44;99.85;96955.02;52452;1257;1069024;-77
2023/03/06 06:59:12;;;;;;;18.40;9.50;;;;;;;1.53;100.00;96961.02;52608;1254;1015849;-77
2023/03/06 07:01:38;;;;;;;20.70;8.00;;;;;;;1.62;99.17;96962.98;52531;1257;1073030;-77
2023/03/06 07:04:05;;;;;;;8.40;6.50;;;;;;;1.62;93.59;96967.95;52619;1256;1016391;-77
2023/03/06 07:06:32;;;;;;;47.90;30.30;;;;;;;1.72;94.87;96954.63;52477;1254;1054291;-77
2023/03/06 07:08:58;;;;;;;51.40;33.30;;;;;;;1.73;90.89;96968.42;52594;1254;1015897;-76
2023/03/06 07:11:25;;;;;;;20.30;13.30;;;;;;;1.85;94.05;96959.27;52600;1254;1058560;-77
2023/03/06 07:13:52;;;;;;;8.30;6.30;;;;;;;1.84;91.59;96953.70;52520;1256;1016365;-75
2023/03/06 07:16:19;;;;;;;7.60;4.80;;;;;;;1.91;89.40;96957.69;52645;1254;1073273;-76
2023/03/06 07:18:45;;;;;;;7.70;5.30;;;;;;;1.99;87.61;96958.10;52526;1257;1016365;-75
2023/03/06 07:21:12;;;;;;;10.20;5.90;;;;;;;2.15;88.99;96965.20;52606;1254;1071835;-77
2023/03/06 07:23:39;;;;;;;28.30;16.00;;;;;;;2.28;90.84;96965.66;52549;1254;1016124;-76
2023/03/06 07:26:05;;;;;;;73.20;34.60;;;;;;;2.32;89.68;96969.45;52470;1254;1073545;-77
2023/03/06 07:28:32;;;;;;;22.40;13.00;;;;;;;2.43;88.53;96973.46;52573;1257;1016507;-77
2023/03/06 07:30:59;;;;;;;13.90;7.90;;;;;;;2.69;91.13;96967.17;52560;1254;1051686;-76
2023/03/06 07:33:25;;;;;;;16.20;9.00;;;;;;;2.98;90.46;96970.23;52516;1254;1016027;-77
2023/03/06 07:35:52;;;;;;;10.80;8.30;;;;;;;3.35;88.91;96968.17;52658;1257;1060676;-77
2023/03/06 07:38:19;;;;;;;8.30;5.60;;;;;;;3.91;85.17;96970.98;52535;1254;1016861;-76
2023/03/06 07:40:49;;;;;;;16.80;8.80;;;;;;;4.28;91.07;96964.24;52621;1254;1075204;-77
2023/03/06 07:43:15;;;;;;;9.60;6.00;;;;;;;4.45;90.58;96963.80;52620;1256;1016558;-77
2023/03/06 07:45:42;;;;;;;11.10;6.20;;;;;;;5.32;87.59;96968.52;52640;1257;1015974;-77
2023/03/06 07:48:09;;;;;;;8.30;5.80;;;;;;;6.09;89.08;96965.25;52604;1256;1069617;-78
2023/03/06 07:50:37;;;;;;;7.70;5.80;;;;;;;6.49;84.87;96968.70;52620;1256;1016458;-77
2023/03/06 07:53:04;;;;;;;8.10;4.60;;;;;;;6.53;79.72;96968.56;52600;1259;1071100;-76
2023/03/06 07:55:31;;;;;;;7.50;4.50;;;;;;;6.54;82.36;96967.48;52479;1254;1016306;-76
2023/03/06 07:57:57;;;;;;;9.80;5.90;;;;;;;6.24;80.73;96964.74;52554;1256;1049928;-76
2023/03/06 08:00:24;;;;;;;7.80;5.40;;;;;;;6.44;82.17;96965.50;52600;1254;1016395;-76
2023/03/06 08:02:51;;;;;;;5.80;4.80;;;;;;;6.66;80.97;96964.83;52452;1254;1058809;-76
2023/03/06 08:05:18;;;;;;;7.00;4.40;;;;;;;6.34;78.42;96964.96;52507;1254;1016284;-76
2023/03/06 08:07:44;;;;;;;7.60;4.20;;;;;;;5.87;76.38;96972.48;52666;1257;1073924;-76
2023/03/06 08:10:12;;;;;;;7.20;5.70;;;;;;;5.48;76.06;96968.55;52444;1255;1016025;-76
2023/03/06 08:12:38;;;;;;;6.30;4.30;;;;;;;5.11;76.92;96967.48;52567;1257;1069103;-76
2023/03/06 08:15:07;;;;;;;8.60;5.30;;;;;;;4.76;77.69;96967.54;52572;1254;1016240;-76
2023/03/06 08:17:34;;;;;;;7.70;5.20;;;;;;;4.58;78.95;96965.91;53052;1257;1070238;-78
2023/03/06 08:20:00;;;;;;;7.70;4.30;;;;;;;4.46;77.33;96964.96;52533;1254;1015550;-78
2023/03/06 08:22:27;;;;;;;8.60;5.10;;;;;;;4.42;78.68;96960.73;52537;1254;1051629;-76
2023/03/06 08:24:55;;;;;;;8.30;3.40;;;;;;;4.38;78.73;96963.46;52496;1257;1016607;-77
2023/03/06 08:27:21;;;;;;;6.50;4.80;;;;;;;4.42;76.85;96964.01;52681;1254;1058450;-77
2023/03/06 08:29:48;;;;;;;6.50;4.20;;;;;;;4.27;75.05;96963.91;52593;1257;1016812;-77
2023/03/06 08:32:15;;;;;;;9.30;5.00;;;;;;;4.20;74.97;96960.89;52497;1254;1073175;-76
2023/03/06 08:34:41;;;;;;;9.40;4.70;;;;;;;4.20;75.93;96961.12;52634;1254;1016374;-77
2023/03/06 08:37:08;;;;;;;6.50;3.90;;;;;;;4.24;73.94;96959.88;52563;1254;1069540;-77
2023/03/06 08:39:35;;;;;;;7.00;4.30;;;;;;;4.14;72.44;96963.18;52522;1257;1017537;-77
2023/03/06 08:42:01;;;;;;;7.50;4.00;;;;;;;4.17;73.33;96961.05;52837;1254;1073472;-77
2023/03/06 08:44:28;;;;;;;7.40;4.60;;;;;;;4.20;73.98;96956.50;52517;1258;1017950;-78
2023/03/06 08:46:54;;;;;;;7.20;4.30;;;;;;;4.23;72.91;96956.30;52486;1260;1051284;-78
2023/03/06 08:49:21;;;;;;;4.80;3.10;;;;;;;4.19;71.66;96959.70;52508;1257;1016340;-77
2023/03/06 08:51:48;;;;;;;4.90;3.60;;;;;;;4.12;71.89;96956.33;52534;1254;1061001;-77
2023/03/06 08:54:14;;;;;;;10.90;3.10;;;;;;;4.18;72.84;96957.39;52541;1254;1016505;-77
2023/03/06 08:56:41;;;;;;;52.80;27.30;;;;;;;4.22;71.24;96956.08;52491;1254;1076733;-76
2023/03/06 08:59:09;;;;;;;6.20;3.30;;;;;;;4.30;70.54;96961.45;52519;1254;1016362;-76
2023/03/06 09:01:36;;;;;;;13.40;9.40;;;;;;;4.37;71.64;96959.27;52685;1257;1069365;-76
2023/03/06 09:04:05;;;;;;;9.60;4.60;;;;;;;4.44;71.19;96962.13;52519;1254;1016135;-77
2023/03/06 09:06:33;;;;;;;9.30;4.50;;;;;;;4.44;69.39;96952.59;52461;1257;1073468;-77
2023/03/06 09:08:59;;;;;;;7.30;3.40;;;;;;;4.42;67.96;96952.95;52479;1259;1016164;-76
2023/03/06 09:11:26;;;;;;;6.30;3.80;;;;;;;4.44;69.15;96956.77;52590;1257;1054029;-75
2023/03/06 09:13:53;;;;;;;7.40;4.20;;;;;;;4.53;69.66;96954.15;52450;1257;1015745;-76
2023/03/06 09:16:19;;;;;;;7.50;4.10;;;;;;;4.57;69.64;96954.85;52536;1254;1059012;-76
2023/03/06 09:18:48;;;;;;;14.80;6.90;;;;;;;4.73;71.07;96954.38;52624;1254;1016374;-77
2023/03/06 09:21:15;;;;;;;118.10;50.30;;;;;;;4.90;71.51;96955.02;52631;1254;1073149;-77
2023/03/06 09:23:41;;;;;;;23.70;12.40;;;;;;;5.09;70.78;96956.25;52504;1254;1019345;-77
2023/03/06 09:26:09;;;;;;;12.90;6.80;;;;;;;5.24;71.47;96956.29;52588;1258;1069514;-77
2023/03/06 09:28:37;;;;;;;9.80;5.30;;;;;;;5.46;70.90;96952.27;52629;1254;1016359;-77
2023/03/06 09:31:11;;;;;;;11.30;5.90;;;;;;;5.69;70.76;96949.73;53946;1253;1070579;-78
2023/03/06 09:33:38;;;;;;;8.70;5.10;;;;;;;5.91;68.84;96946.29;53967;1254;1071510;-77
2023/03/06 09:36:05;;;;;;;13.10;7.00;;;;;;;5.95;67.61;96941.23;54030;1254;1016068;-77
2023/03/06 09:38:32;;;;;;;11.00;6.10;;;;;;;6.06;69.00;96934.30;52749;1257;1052040;-76
2023/03/06 09:41:07;;;;;;;10.70;6.20;;;;;;;6.11;66.80;96930.92;52682;1256;1019399;-76
2023/03/06 09:43:38;;;;;;;7.90;4.90;;;;;;;6.13;65.73;96928.48;52536;1255;1059327;-76
2023/03/06 09:46:30;;;;;;;7.30;4.90;;;;;;;6.29;67.62;96931.52;52666;1256;1057904;-76
2023/03/06 09:49:37;;;;;;;21.80;10.50;;;;;;;6.42;67.25;96926.37;52602;1257;1058685;-77
2023/03/06 09:52:15;;;;;;;8.50;4.50;;;;;;;6.47;66.97;96927.86;52480;1254;1061627;-77
2023/03/06 09:54:54;;;;;;;7.90;4.30;;;;;;;6.54;66.05;96924.41;52615;1254;1058125;-77
2023/03/06 09:57:24;;;;;;;6.60;4.60;;;;;;;6.70;66.41;96922.63;52529;1258;1060817;-76
2023/03/06 09:59:53;;;;;;;7.20;4.80;;;;;;;6.75;64.14;96927.16;52576;1254;1015315;-76
2023/03/06 10:02:36;;;;;;;;;;;;;;;6.81;64.91;96921.10;52580;1254;1015549;-76
2023/03/06 10:05:05;;;;;;;8.80;3.50;;;;;;;6.91;63.57;96918.10;52517;1254;1058421;-75
2023/03/06 10:07:41;;;;;;;8.50;4.80;;;;;;;6.82;58.93;96916.88;52483;1254;1016142;-76
2023/03/06 10:10:14;;;;;;;6.40;4.30;;;;;;;6.77;60.38;96913.80;52384;1254;1058491;-78
2023/03/06 10:12:47;;;;;;;7.10;3.50;;;;;;;6.80;61.14;96911.89;52539;1254;1059246;-77
2023/03/06 10:15:16;;;;;;;5.30;3.40;;;;;;;6.73;60.84;96903.80;52456;1254;1058994;-77
2023/03/06 10:17:43;;;;;;;109.60;37.00;;;;;;;6.61;60.52;96904.66;52465;1254;1016069;-77
2023/03/06 10:20:18;;;;;;;8.70;4.60;;;;;;;6.57;60.48;96899.64;52445;1254;1016270;-77
2023/03/06 10:22:55;;;;;;;15.90;5.20;;;;;;;6.53;60.29;96895.14;52570;1254;1073352;-77
2023/03/06 10:25:26;;;;;;;6.90;3.90;;;;;;;6.52;59.22;96893.27;52514;1254;1073450;-77
2023/03/06 10:28:00;;;;;;;130.30;50.20;;;;;;;6.41;58.62;96887.80;52474;1254;1074280;-76
2023/03/06 10:30:39;;;;;;;19.60;7.50;;;;;;;6.47;60.02;96885.98;52638;1258;1078150;-77
2023/03/06 10:33:15;;;;;;;8.00;4.00;;;;;;;6.43;59.41;96883.15;52493;1254;1076047;-77
2023/03/06 10:35:49;;;;;;;5.80;4.30;;;;;;;6.34;57.47;96879.45;52427;1257;1076090;-77
2023/03/06 10:38:21;;;;;;;15.70;8.00;;;;;;;6.33;58.65;96874.04;52757;1254;1074001;-77
2023/03/06 10:41:11;;;;;;;30.20;12.90;;;;;;;6.38;60.30;96872.82;52515;1254;1076249;-77
2023/03/06 10:43:39;;;;;;;14.20;3.20;;;;;;;6.57;59.13;96875.30;52329;1254;1073830;-77
2023/03/06 10:46:07;;;;;;;73.00;33.30;;;;;;;6.66;57.89;96867.95;52430;1254;1019440;-77
2023/03/06 10:48:37;;;;;;;13.20;7.40;;;;;;;6.65;59.03;96869.15;52449;1259;1018077;-77
2023/03/06 10:51:20;;;;;;;8.40;4.30;;;;;;;6.74;58.27;96865.31;52448;1257;1068927;-77
2023/03/06 10:53:50;;;;;;;6.90;3.30;;;;;;;6.80;59.12;96863.00;52542;1254;1069687;-77
2023/03/06 10:56:37;;;;;;;8.00;3.50;;;;;;;6.86;58.55;96857.88;52446;1254;1070435;-78
2023/03/06 10:59:14;;;;;;;59.00;29.20;;;;;;;6.85;58.42;96855.58;52450;1254;1071654;-77
2023/03/06 11:01:42;;;;;;;10.70;5.60;;;;;;;6.78;58.59;96853.75;52498;1254;1069792;-78
2023/03/06 11:04:23;;;;;;;7.00;4.20;;;;;;;6.75;57.98;96853.29;52487;1254;1016282;-77
2023/03/06 11:07:13;;;;;;;5.60;3.00;;;;;;;6.73;58.30;96853.46;52432;1254;1072090;-77
2023/03/06 11:09:57;;;;;;;5.40;3.00;;;;;;;6.80;56.14;96842.80;52529;1254;1068900;-77
2023/03/06 11:12:25;;;;;;;6.90;2.90;;;;;;;6.81;56.40;96840.15;52444;1254;1069876;-77